Time;durP1;ratioP1;P1;durP2;ratioP2;P2;SDS_P1;SDS_P2;PMS_P1;PMS_P2;Temp;Humidity;BMP_temperature;BMP_pressure;BME280_temperature;BME280_humidity;BME280_pressure;Samples;Min_cycle;Max_cycle;Signal;HPM_P1;HPM_P2
2023/04/23 00:03:58;;;;;;;2.17;1.63;;;7.00;99.90;;;;;;5016763;28;20095;-67
2023/04/23 00:08:05;;;;;;;2.20;1.55;;;7.10;99.90;;;;;;5022908;28;20067;-75
2023/04/23 00:12:11;;;;;;;3.28;1.58;;;7.10;99.90;;;;;;5026049;28;20150;-62
2023/04/23 00:18:28;;;;;;;1.75;1.40;;;7.10;99.90;;;;;;4891685;29;20056;-65
2023/04/23 00:20:56;;;;;;;3.92;1.52;;;7.10;99.90;;;;;;4902191;29;20115;-63
2023/04/23 00:23:23;;;;;;;4.05;1.75;;;7.10;99.90;;;;;;4879164;29;20049;-72
2023/04/23 00:25:50;;;;;;;2.42;1.63;;;7.10;99.90;;;;;;4888122;29;20049;-64
2023/04/23 00:28:16;;;;;;;1.58;1.23;;;7.10;99.90;;;;;;4887853;29;20060;-66
2023/04/23 00:30:46;;;;;;;2.40;2.07;;;7.10;99.90;;;;;;4891008;29;20176;-64
2023/04/23 00:33:13;;;;;;;3.42;1.63;;;7.10;99.90;;;;;;4901219;29;20129;-72
2023/04/23 00:35:40;;;;;;;2.95;1.30;;;7.00;99.90;;;;;;4919385;29;20052;-66
2023/04/23 00:38:07;;;;;;;5.40;2.13;;;7.10;99.90;;;;;;4916253;29;20119;-68
2023/04/23 00:40:34;;;;;;;5.05;1.55;;;7.10;99.90;;;;;;4905120;29;20514;-66
2023/04/23 00:43:01;;;;;;;2.85;1.75;;;7.10;99.90;;;;;;4906459;29;20060;-66
2023/04/23 00:45:28;;;;;;;2.92;1.10;;;7.00;99.90;;;;;;4902479;29;20101;-72
2023/04/23 00:47:55;;;;;;;2.63;1.17;;;7.00;99.90;;;;;;4906114;29;20052;-63
2023/04/23 00:50:23;;;;;;;2.53;1.67;;;7.00;99.90;;;;;;4904260;29;20510;-62
2023/04/23 00:52:49;;;;;;;2.30;1.80;;;7.00;99.90;;;;;;4908036;28;20143;-66
2023/04/23 00:55:19;;;;;;;4.05;1.67;;;7.00;99.90;;;;;;4912006;29;20139;-62
2023/04/23 00:57:47;;;;;;;2.28;1.83;;;6.90;99.90;;;;;;4916961;29;20119;-62
2023/04/23 01:00:14;;;;;;;2.58;1.90;;;6.90;99.90;;;;;;4911191;29;20084;-70
2023/04/23 01:02:43;;;;;;;2.75;1.83;;;7.00;99.90;;;;;;4912884;29;20406;-63
2023/04/23 01:05:12;;;;;;;4.80;1.50;;;6.90;99.90;;;;;;4907856;29;20079;-69
2023/04/23 01:07:40;;;;;;;2.33;1.63;;;6.90;99.90;;;;;;4922497;29;20048;-63
2023/04/23 01:10:08;;;;;;;4.68;1.70;;;6.90;99.90;;;;;;4904845;29;20390;-64
2023/04/23 01:12:35;;;;;;;1.77;1.55;;;6.80;99.90;;;;;;4886339;29;20060;-63
2023/04/23 01:15:03;;;;;;;3.63;1.95;;;6.90;99.90;;;;;;4893993;29;20109;-63
2023/04/23 01:17:30;;;;;;;3.40;1.88;;;6.90;99.90;;;;;;4912077;29;20134;-63
2023/04/23 01:19:58;;;;;;;4.20;2.28;;;6.80;99.90;;;;;;4947494;28;20058;-69
2023/04/23 01:22:25;;;;;;;2.08;1.45;;;6.80;99.90;;;;;;4949481;28;20516;-64
2023/04/23 01:24:52;;;;;;;3.72;2.13;;;6.70;99.90;;;;;;4948243;28;20054;-63
2023/04/23 01:27:19;;;;;;;4.68;2.38;;;6.60;99.90;;;;;;4936512;29;20066;-64
2023/04/23 01:29:46;;;;;;;4.65;1.92;;;6.60;99.90;;;;;;4944339;28;20063;-63
2023/04/23 01:32:14;;;;;;;4.25;2.40;;;6.60;99.90;;;;;;4949536;28;20434;-67
2023/04/23 01:34:42;;;;;;;5.35;2.30;;;6.60;99.90;;;;;;4948517;28;20133;-68
2023/04/23 01:37:10;;;;;;;2.35;1.80;;;6.60;99.90;;;;;;4953733;28;20051;-71
2023/04/23 01:39:37;;;;;;;2.95;2.00;;;6.60;99.90;;;;;;4949893;28;20150;-65
2023/04/23 01:42:06;;;;;;;2.97;1.75;;;6.60;99.90;;;;;;4950380;28;20528;-62
2023/04/23 01:44:33;;;;;;;4.15;1.92;;;6.60;99.90;;;;;;4934681;28;20054;-67
2023/04/23 01:47:00;;;;;;;3.00;1.95;;;6.60;99.90;;;;;;4945516;28;20066;-63
2023/04/23 01:49:27;;;;;;;2.10;1.90;;;6.60;99.90;;;;;;4935519;28;20142;-66
2023/04/23 01:51:53;;;;;;;3.10;1.95;;;6.50;99.90;;;;;;4943425;28;20079;-67
2023/04/23 01:54:20;;;;;;;2.42;2.22;;;6.50;99.90;;;;;;4939677;28;20089;-63
2023/04/23 01:56:53;;;;;;;2.72;1.75;;;6.50;99.90;;;;;;4946006;28;20092;-63
2023/04/23 01:59:21;;;;;;;5.28;1.67;;;6.50;99.90;;;;;;4947331;28;20138;-67
2023/04/23 02:01:49;;;;;;;2.72;1.67;;;6.40;99.90;;;;;;4962711;28;20083;-63
2023/04/23 02:04:16;;;;;;;1.92;1.40;;;6.40;99.90;;;;;;4941916;28;20135;-72
2023/04/23 02:06:47;;;;;;;2.80;1.70;;;6.40;99.90;;;;;;4935401;28;20524;-63
2023/04/23 02:09:14;;;;;;;3.47;1.40;;;6.40;99.90;;;;;;4947066;28;20139;-63
2023/04/23 02:11:41;;;;;;;11.13;1.85;;;6.40;99.90;;;;;;4952080;28;20578;-63
2023/04/23 02:14:09;;;;;;;3.50;1.50;;;6.40;99.90;;;;;;4945458;28;20210;-63
2023/04/23 02:16:36;;;;;;;4.55;1.60;;;6.40;99.90;;;;;;4950151;28;20127;-63
2023/04/23 02:19:03;;;;;;;5.43;1.85;;;6.40;99.90;;;;;;4943482;28;20055;-65
2023/04/23 02:21:30;;;;;;;2.80;1.73;;;6.40;99.90;;;;;;4960827;28;20091;-69
2023/04/23 02:23:57;;;;;;;2.25;1.50;;;6.40;99.90;;;;;;4939117;28;20098;-65
2023/04/23 02:26:25;;;;;;;1.90;1.75;;;6.30;99.90;;;;;;4946099;28;20146;-69
2023/04/23 02:28:51;;;;;;;1.60;1.50;;;6.40;99.90;;;;;;4961709;28;20065;-67
2023/04/23 02:31:19;;;;;;;2.25;1.70;;;6.30;99.90;;;;;;4947226;28;20067;-63
2023/04/23 02:33:46;;;;;;;3.42;1.98;;;6.30;99.90;;;;;;4948144;28;20098;-64
2023/04/23 02:36:13;;;;;;;2.30;1.55;;;6.20;99.90;;;;;;4946692;28;20126;-64
2023/04/23 02:38:41;;;;;;;2.17;1.38;;;6.30;99.90;;;;;;4948550;28;20746;-68
2023/04/23 02:41:08;;;;;;;6.88;1.42;;;6.20;99.90;;;;;;4938092;28;20060;-63
2023/04/23 02:43:35;;;;;;;2.45;1.77;;;6.20;99.90;;;;;;4951801;28;20188;-64
2023/04/23 02:46:06;;;;;;;4.63;1.60;;;6.20;99.90;;;;;;4946358;28;20070;-65
2023/04/23 02:48:37;;;;;;;3.47;1.40;;;6.30;99.90;;;;;;4945435;28;20620;-64
2023/04/23 02:51:05;;;;;;;2.00;1.65;;;6.20;99.90;;;;;;4970572;28;20175;-62
2023/04/23 02:53:32;;;;;;;2.90;1.98;;;6.20;99.90;;;;;;4963935;28;20125;-64
2023/04/23 02:56:00;;;;;;;3.78;1.50;;;6.20;99.90;;;;;;4962292;28;20142;-66
2023/04/23 02:58:28;;;;;;;3.35;1.50;;;6.20;99.90;;;;;;4961676;28;20051;-65
2023/04/23 03:00:58;;;;;;;2.40;1.50;;;6.20;99.90;;;;;;4946504;28;20048;-72
2023/04/23 03:03:30;;;;;;;2.95;1.92;;;6.20;99.90;;;;;;4949543;28;20052;-63
2023/04/23 03:06:00;;;;;;;1.77;1.42;;;6.20;99.90;;;;;;4943081;28;20067;-63
2023/04/23 03:08:27;;;;;;;2.10;1.73;;;6.10;99.90;;;;;;4960489;28;20047;-63
2023/04/23 03:10:54;;;;;;;5.55;1.88;;;6.10;99.90;;;;;;4944616;28;20176;-63
2023/04/23 03:13:21;;;;;;;2.47;1.92;;;6.20;99.90;;;;;;4947426;28;20051;-63
2023/04/23 03:15:49;;;;;;;2.03;1.63;;;6.10;99.90;;;;;;4947700;28;20562;-66
2023/04/23 03:18:17;;;;;;;4.25;2.58;;;6.10;99.90;;;;;;4947587;28;20073;-67
2023/04/23 03:20:46;;;;;;;3.00;2.38;;;6.10;99.90;;;;;;4947000;28;20058;-70
2023/04/23 03:23:14;;;;;;;2.53;1.67;;;6.00;99.90;;;;;;4942556;28;20618;-64
2023/04/23 03:25:41;;;;;;;1.67;1.58;;;6.00;99.90;;;;;;4949670;28;20047;-64
2023/04/23 03:28:08;;;;;;;4.25;1.42;;;6.00;99.90;;;;;;4946092;28;20676;-64
2023/04/23 03:30:34;;;;;;;5.50;2.35;;;5.90;99.90;;;;;;4945053;28;20686;-64
2023/04/23 03:33:02;;;;;;;4.68;2.15;;;5.90;99.90;;;;;;4933258;28;20075;-70
2023/04/23 03:35:29;;;;;;;2.90;2.00;;;5.90;99.90;;;;;;4936741;28;20494;-66
2023/04/23 03:37:58;;;;;;;1.58;1.40;;;5.90;99.90;;;;;;4957478;28;20070;-62
2023/04/23 03:40:26;;;;;;;4.70;1.85;;;5.80;99.90;;;;;;4943504;28;20058;-62
2023/04/23 03:42:57;;;;;;;5.07;1.77;;;5.80;99.90;;;;;;4960173;28;20115;-63
2023/04/23 03:45:44;;;;;;;3.58;1.50;;;5.70;99.90;;;;;;4941013;28;20044;-63
2023/04/23 03:48:11;;;;;;;2.40;1.40;;;5.70;99.90;;;;;;4932411;28;20066;-66
2023/04/23 03:50:39;;;;;;;2.00;1.70;;;5.70;99.90;;;;;;4942465;28;21149;-63
2023/04/23 03:53:19;;;;;;;2.83;1.50;;;5.70;99.90;;;;;;4959684;28;20071;-69
2023/04/23 03:56:12;;;;;;;2.65;1.33;;;5.60;99.90;;;;;;4943274;28;20047;-63
2023/04/23 03:58:47;;;;;;;1.92;1.30;;;5.60;99.90;;;;;;4961747;28;20149;-62
2023/04/23 04:01:14;;;;;;;3.80;1.80;;;5.70;99.90;;;;;;4947239;28;20058;-66
2023/04/23 04:03:41;;;;;;;3.28;1.40;;;5.70;99.90;;;;;;4949709;28;20050;-63
2023/04/23 04:06:08;;;;;;;1.55;1.27;;;5.70;99.90;;;;;;4948376;28;20102;-68
2023/04/23 04:08:35;;;;;;;5.13;1.75;;;5.70;99.90;;;;;;4943991;28;20547;-64
2023/04/23 04:11:02;;;;;;;2.63;1.90;;;5.70;99.90;;;;;;4945360;28;20055;-63
2023/04/23 04:13:29;;;;;;;3.90;1.70;;;5.70;99.90;;;;;;4943378;28;20169;-63
2023/04/23 04:15:55;;;;;;;4.65;1.65;;;5.70;99.90;;;;;;4946409;28;20051;-63
2023/04/23 04:18:22;;;;;;;2.33;1.63;;;5.80;99.90;;;;;;4939050;28;20063;-63
2023/04/23 04:20:51;;;;;;;3.72;1.58;;;5.80;99.90;;;;;;4938065;28;20387;-65
2023/04/23 04:23:17;;;;;;;5.32;1.70;;;5.90;99.90;;;;;;4946916;28;20145;-64
2023/04/23 04:25:44;;;;;;;3.78;1.88;;;6.00;99.90;;;;;;4946338;28;20053;-68
2023/04/23 04:28:11;;;;;;;3.88;1.67;;;6.10;99.90;;;;;;4922365;28;20070;-70
2023/04/23 04:30:39;;;;;;;2.17;1.65;;;6.20;99.90;;;;;;4929518;28;20043;-67
2023/04/23 04:33:06;;;;;;;1.73;1.63;;;6.20;99.90;;;;;;4945543;28;20062;-67
2023/04/23 04:35:33;;;;;;;4.90;1.98;;;6.20;99.90;;;;;;4949444;28;20057;-64
2023/04/23 04:37:59;;;;;;;3.20;1.85;;;6.30;99.90;;;;;;4941229;28;20417;-64
2023/04/23 04:40:27;;;;;;;2.33;1.40;;;6.40;99.90;;;;;;4946427;28;20057;-64
2023/04/23 04:42:54;;;;;;;5.20;2.33;;;6.40;99.90;;;;;;4945683;28;20209;-63
2023/04/23 04:45:22;;;;;;;1.75;1.45;;;6.50;99.90;;;;;;4935268;28;20071;-64
2023/04/23 04:47:49;;;;;;;1.90;1.13;;;6.60;99.90;;;;;;4931919;28;20047;-69
2023/04/23 04:50:16;;;;;;;4.57;1.70;;;6.70;99.90;;;;;;4945335;28;20133;-63
2023/04/23 04:52:43;;;;;;;1.77;1.30;;;6.70;99.90;;;;;;4941944;28;20094;-66
2023/04/23 04:55:09;;;;;;;2.78;1.52;;;6.80;99.90;;;;;;4936626;28;20055;-68
2023/04/23 04:57:36;;;;;;;2.35;1.30;;;6.80;99.90;;;;;;4947295;28;20055;-64
2023/04/23 05:00:18;;;;;;;3.67;1.50;;;6.90;99.90;;;;;;4946929;28;20062;-64
2023/04/23 05:02:46;;;;;;;4.53;2.13;;;6.90;99.90;;;;;;4941938;28;20052;-63
2023/04/23 05:05:13;;;;;;;1.33;1.20;;;6.90;99.90;;;;;;4939933;28;20892;-68
2023/04/23 05:07:40;;;;;;;2.00;1.73;;;7.00;99.90;;;;;;4931708;28;20048;-64
2023/04/23 05:10:07;;;;;;;3.17;1.50;;;7.00;99.90;;;;;;4928345;28;20139;-63
2023/04/23 05:12:36;;;;;;;3.92;1.40;;;7.10;99.90;;;;;;4947841;28;20051;-63
2023/04/23 05:15:03;;;;;;;1.60;1.50;;;7.20;99.90;;;;;;4941723;28;20143;-73
2023/04/23 05:17:30;;;;;;;5.00;2.55;;;7.20;99.90;;;;;;4945095;28;20789;-71
2023/04/23 05:19:57;;;;;;;2.00;1.25;;;7.20;99.90;;;;;;4938114;28;20098;-63
2023/04/23 05:22:25;;;;;;;2.00;1.13;;;7.30;99.90;;;;;;4950121;28;20393;-65
2023/04/23 05:24:52;;;;;;;3.67;1.50;;;7.30;99.90;;;;;;4940500;28;20087;-64
2023/04/23 05:27:18;;;;;;;2.72;1.80;;;7.40;99.90;;;;;;4946560;28;20061;-66
2023/04/23 05:29:45;;;;;;;2.42;1.38;;;7.50;99.90;;;;;;4940502;28;20090;-66
2023/04/23 05:32:12;;;;;;;2.67;1.73;;;7.60;99.90;;;;;;4940630;28;20054;-64
2023/04/23 05:34:39;;;;;;;1.95;1.45;;;7.70;99.90;;;;;;4948636;28;20142;-74
2023/04/23 05:37:07;;;;;;;2.72;1.23;;;7.70;99.90;;;;;;4942297;28;20062;-66
2023/04/23 05:39:33;;;;;;;4.15;1.77;;;7.80;99.90;;;;;;4949103;28;20819;-64
2023/04/23 05:42:01;;;;;;;3.90;1.67;;;7.90;99.90;;;;;;4947431;28;20082;-64
2023/04/23 05:44:29;;;;;;;2.25;1.73;;;8.00;99.90;;;;;;4946891;28;20055;-64
2023/04/23 05:46:56;;;;;;;1.95;1.48;;;8.10;99.90;;;;;;4945839;28;20051;-72
2023/04/23 05:49:22;;;;;;;4.10;1.23;;;8.20;99.90;;;;;;4945733;28;20426;-65
2023/04/23 05:51:50;;;;;;;2.50;1.88;;;8.30;99.90;;;;;;4945341;28;20120;-64
2023/04/23 05:54:18;;;;;;;2.67;1.23;;;8.40;99.90;;;;;;4948357;28;20043;-64
2023/04/23 05:56:44;;;;;;;3.28;1.65;;;8.40;99.90;;;;;;4946654;28;20157;-69
2023/04/23 05:59:11;;;;;;;2.22;1.65;;;8.50;99.90;;;;;;4948196;28;20047;-69
2023/04/23 06:01:38;;;;;;;2.65;1.83;;;8.70;99.90;;;;;;4945708;28;20055;-65
2023/04/23 06:04:06;;;;;;;8.82;2.47;;;8.80;99.90;;;;;;4946830;28;20063;-70
2023/04/23 06:06:33;;;;;;;2.20;1.55;;;8.90;99.90;;;;;;4932846;28;20052;-65
2023/04/23 06:09:00;;;;;;;2.33;1.55;;;9.00;99.90;;;;;;4937556;28;20065;-72
2023/04/23 06:11:26;;;;;;;5.53;1.83;;;9.10;99.90;;;;;;4942602;28;20075;-65
2023/04/23 06:13:55;;;;;;;3.03;1.08;;;9.30;99.90;;;;;;4923299;28;20465;-66
2023/04/23 06:16:22;;;;;;;2.00;1.38;;;9.40;99.90;;;;;;4947180;28;20078;-65
2023/04/23 06:18:50;;;;;;;1.20;1.08;;;9.50;99.90;;;;;;4945072;28;20088;-64
2023/04/23 06:21:16;;;;;;;5.38;1.50;;;9.60;99.90;;;;;;4944386;28;20055;-64
2023/04/23 06:23:45;;;;;;;1.55;1.45;;;9.80;99.90;;;;;;4929113;28;20529;-73
2023/04/23 06:26:12;;;;;;;3.22;0.80;;;9.90;99.90;;;;;;4945405;28;20043;-67
2023/04/23 06:28:43;;;;;;;3.33;1.60;;;10.00;99.90;;;;;;4946502;28;20443;-64
2023/04/23 06:31:31;;;;;;;1.70;1.02;;;10.10;99.90;;;;;;4959742;28;20563;-64
2023/04/23 06:33:58;;;;;;;1.30;0.98;;;10.40;99.90;;;;;;4945467;28;20059;-65
2023/04/23 06:36:25;;;;;;;1.70;1.55;;;10.50;99.90;;;;;;4925859;29;20054;-70
2023/04/23 06:38:52;;;;;;;1.92;1.15;;;10.70;99.90;;;;;;4927924;29;20055;-64
2023/04/23 06:41:19;;;;;;;2.60;1.55;;;10.80;99.90;;;;;;4940455;28;20420;-63
2023/04/23 06:43:48;;;;;;;2.10;1.67;;;10.90;99.90;;;;;;4961645;28;20078;-65
2023/04/23 06:46:20;;;;;;;3.53;1.20;;;11.00;99.90;;;;;;4955619;28;20154;-72
2023/04/23 06:48:47;;;;;;;1.58;1.02;;;11.10;99.90;;;;;;4925332;29;20067;-64
2023/04/23 06:51:14;;;;;;;2.40;1.40;;;11.30;99.90;;;;;;4938976;28;20493;-71
2023/04/23 06:53:41;;;;;;;2.20;1.23;;;11.40;99.90;;;;;;4945157;28;20083;-65
2023/04/23 06:56:08;;;;;;;2.72;1.13;;;11.60;99.90;;;;;;4946355;28;20047;-63
2023/04/23 06:58:35;;;;;;;1.20;1.10;;;11.60;99.90;;;;;;4940764;28;20048;-71
2023/04/23 07:01:12;;;;;;;3.95;1.08;;;11.80;99.90;;;;;;4926510;29;20497;-74
2023/04/23 07:03:40;;;;;;;5.45;1.52;;;11.80;99.90;;;;;;4946873;28;20054;-77
2023/04/23 07:06:07;;;;;;;3.03;1.13;;;11.90;99.90;;;;;;4944049;28;20063;-67
2023/04/23 07:08:34;;;;;;;5.18;1.30;;;12.00;99.90;;;;;;4945517;28;20062;-65
2023/04/23 07:11:01;;;;;;;5.05;2.45;;;12.10;99.90;;;;;;4941947;28;20078;-65
2023/04/23 07:13:28;;;;;;;4.20;1.35;;;12.20;99.90;;;;;;4946134;28;20497;-64
2023/04/23 07:15:55;;;;;;;6.07;1.98;;;12.40;99.90;;;;;;4945952;28;20145;-70
2023/04/23 07:18:22;;;;;;;9.75;2.88;;;12.50;99.90;;;;;;4941883;28;20059;-66
2023/04/23 07:20:49;;;;;;;2.08;1.10;;;12.60;99.90;;;;;;4943295;28;20055;-65
2023/04/23 07:23:15;;;;;;;2.55;1.50;;;12.70;99.90;;;;;;4941453;28;20074;-66
2023/04/23 07:25:42;;;;;;;2.72;1.25;;;12.90;99.90;;;;;;4945347;28;20137;-68
2023/04/23 07:28:09;;;;;;;2.60;1.83;;;12.90;99.90;;;;;;4940967;28;20051;-68
2023/04/23 07:30:36;;;;;;;2.97;1.30;;;13.00;99.90;;;;;;4943223;28;20066;-65
2023/04/23 07:33:03;;;;;;;2.33;1.85;;;13.10;99.90;;;;;;4938475;28;20150;-67
2023/04/23 07:35:30;;;;;;;4.68;1.30;;;13.20;99.90;;;;;;4934005;28;20058;-64
2023/04/23 07:37:57;;;;;;;7.60;2.13;;;13.40;99.90;;;;;;4937862;28;20054;-65
2023/04/23 07:40:24;;;;;;;6.53;2.75;;;13.40;99.90;;;;;;4945910;28;20137;-67
2023/04/23 07:42:51;;;;;;;4.82;1.05;;;13.50;99.90;;;;;;4941205;28;20146;-66
2023/04/23 07:45:18;;;;;;;4.80;1.30;;;13.60;99.90;;;;;;4935697;28;20059;-67
2023/04/23 07:47:46;;;;;;;7.13;2.67;;;13.70;99.90;;;;;;4943569;28;20560;-71
2023/04/23 07:50:13;;;;;;;2.88;1.42;;;13.90;99.90;;;;;;4939966;28;20154;-66
2023/04/23 07:52:40;;;;;;;2.17;1.55;;;13.90;99.90;;;;;;4944314;28;20051;-68
2023/04/23 07:55:08;;;;;;;3.63;1.80;;;14.10;99.90;;;;;;4943006;28;20471;-66
2023/04/23 07:57:35;;;;;;;1.88;1.10;;;14.20;99.90;;;;;;4942252;28;20129;-67
2023/04/23 08:00:03;;;;;;;5.90;1.83;;;14.30;99.90;;;;;;4940051;28;20083;-64
2023/04/23 08:02:37;;;;;;;6.38;1.92;;;14.40;99.90;;;;;;4940716;28;20138;-65
2023/04/23 08:05:05;;;;;;;4.07;2.30;;;14.60;99.90;;;;;;4933412;28;20060;-66
2023/04/23 08:07:33;;;;;;;4.43;1.70;;;14.80;99.90;;;;;;4922524;29;20519;-66
2023/04/23 08:10:03;;;;;;;5.25;2.35;;;15.00;99.90;;;;;;4946948;28;20054;-69
2023/04/23 08:12:29;;;;;;;5.85;1.52;;;15.00;99.90;;;;;;4942119;28;20062;-66
2023/04/23 08:14:57;;;;;;;3.53;2.67;;;15.20;99.90;;;;;;4944649;28;20047;-68
2023/04/23 08:17:30;;;;;;;3.63;1.67;;;15.30;99.40;;;;;;4954804;28;20512;-67
2023/04/23 08:19:57;;;;;;;7.15;2.03;;;15.40;99.90;;;;;;4938511;28;20062;-70
2023/04/23 08:22:24;;;;;;;5.00;2.25;;;15.50;99.80;;;;;;4936346;28;20054;-67
2023/04/23 08:24:51;;;;;;;4.00;3.00;;;15.70;99.90;;;;;;4940356;28;20054;-68
2023/04/23 08:27:18;;;;;;;3.40;1.80;;;15.80;99.10;;;;;;4940971;28;20059;-69
2023/04/23 08:29:45;;;;;;;5.88;2.40;;;16.00;98.80;;;;;;4938451;28;20055;-65
2023/04/23 08:32:12;;;;;;;6.13;2.97;;;16.20;98.40;;;;;;4920555;28;20054;-66
2023/04/23 08:34:39;;;;;;;4.25;3.20;;;16.20;98.30;;;;;;4925236;28;20162;-64
2023/04/23 08:37:06;;;;;;;4.20;2.55;;;16.30;98.00;;;;;;4938104;28;20055;-65
2023/04/23 08:39:45;;;;;;;2.85;2.55;;;16.50;97.70;;;;;;4921966;28;20143;-66
2023/04/23 08:42:29;;;;;;;4.20;3.05;;;16.60;97.60;;;;;;4939515;28;20533;-69
2023/04/23 08:44:56;;;;;;;8.43;3.13;;;16.60;97.20;;;;;;4941554;28;20054;-66
2023/04/23 08:47:24;;;;;;;8.85;3.60;;;16.60;96.70;;;;;;4941716;28;20050;-67
2023/04/23 08:49:53;;;;;;;4.65;3.05;;;16.70;97.30;;;;;;4937505;28;20153;-66
2023/04/23 08:52:25;;;;;;;7.28;3.70;;;16.80;97.10;;;;;;4939715;28;21689;-67
2023/04/23 08:54:53;;;;;;;9.48;4.30;;;17.00;96.10;;;;;;4941976;28;20439;-66
2023/04/23 08:57:21;;;;;;;5.50;3.40;;;17.10;96.40;;;;;;4945901;28;20110;-65
2023/04/23 08:59:49;;;;;;;6.93;4.03;;;17.10;95.50;;;;;;4940101;28;20055;-71
2023/04/23 09:02:16;;;;;;;7.63;4.45;;;17.20;94.70;;;;;;4941252;28;20409;-67
2023/04/23 09:04:47;;;;;;;6.05;3.97;;;17.40;95.10;;;;;;4955766;28;20113;-71
2023/04/23 09:07:17;;;;;;;7.00;4.05;;;17.50;94.80;;;;;;4943728;28;20270;-67
2023/04/23 09:09:44;;;;;;;6.60;4.38;;;17.70;95.30;;;;;;4941910;28;20059;-66
2023/04/23 09:12:11;;;;;;;6.72;4.95;;;17.80;94.80;;;;;;4943339;28;20117;-71
2023/04/23 09:14:38;;;;;;;4.85;4.13;;;17.90;95.00;;;;;;4945790;28;20071;-68
2023/04/23 09:17:05;;;;;;;7.38;5.35;;;18.00;94.40;;;;;;4944864;28;20097;-67
2023/04/23 09:19:32;;;;;;;5.40;4.38;;;18.20;94.90;;;;;;4947287;28;20048;-67
2023/04/23 09:22:02;;;;;;;6.03;5.43;;;18.30;94.50;;;;;;4942449;28;20492;-67
2023/04/23 09:24:29;;;;;;;5.13;4.57;;;18.40;94.80;;;;;;4942944;28;20132;-64
2023/04/23 09:26:57;;;;;;;7.93;4.80;;;18.40;94.10;;;;;;4945641;28;20764;-66
2023/04/23 09:29:24;;;;;;;9.75;5.25;;;18.50;94.50;;;;;;4947661;28;20106;-66
2023/04/23 09:31:54;;;;;;;17.30;4.68;;;18.60;93.90;;;;;;4941259;28;20048;-64
2023/04/23 09:34:23;;;;;;;8.45;7.28;;;18.70;94.30;;;;;;4942989;28;20098;-65
2023/04/23 09:36:52;;;;;;;7.38;6.25;;;18.90;92.60;;;;;;4943451;28;20055;-65
2023/04/23 09:39:21;;;;;;;7.90;6.28;;;18.90;93.00;;;;;;4947225;28;20599;-73
2023/04/23 09:41:51;;;;;;;10.73;7.93;;;19.10;92.50;;;;;;4949557;28;20063;-66
2023/04/23 09:44:22;;;;;;;9.15;7.03;;;19.20;92.00;;;;;;4953570;28;20063;-70
2023/04/23 09:46:49;;;;;;;10.30;7.85;;;19.30;91.90;;;;;;4946814;28;20106;-76
2023/04/23 09:49:16;;;;;;;7.22;6.50;;;19.30;92.20;;;;;;4945592;28;20072;-68
2023/04/23 09:51:45;;;;;;;9.38;7.22;;;19.50;91.80;;;;;;4940875;28;20058;-65
2023/04/23 09:54:15;;;;;;;8.38;6.28;;;19.60;91.90;;;;;;4943063;28;20094;-68
2023/04/23 09:56:42;;;;;;;11.80;6.45;;;19.70;91.60;;;;;;4946065;28;20054;-69
2023/04/23 09:59:26;;;;;;;11.02;7.57;;;19.90;91.70;;;;;;4947381;28;20199;-67
2023/04/23 10:02:06;;;;;;;10.27;7.60;;;20.00;91.20;;;;;;4928015;28;20163;-66
2023/04/23 10:04:34;;;;;;;11.63;8.00;;;20.00;90.60;;;;;;4945400;28;20075;-71
2023/04/23 10:07:07;;;;;;;9.75;8.38;;;20.20;90.70;;;;;;4947460;28;20079;-71
2023/04/23 10:09:46;;;;;;;9.02;7.57;;;20.30;90.10;;;;;;4947876;28;20047;-74
2023/04/23 10:12:13;;;;;;;9.45;8.43;;;20.30;88.30;;;;;;4947507;28;20059;-71
2023/04/23 10:14:45;;;;;;;8.13;7.32;;;20.30;86.70;;;;;;4945365;28;20372;-70
2023/04/23 10:17:12;;;;;;;12.10;8.30;;;20.40;88.70;;;;;;4939240;28;20687;-71
2023/04/23 10:19:41;;;;;;;10.98;7.38;;;20.50;88.50;;;;;;4946462;28;20775;-65
2023/04/23 10:22:11;;;;;;;12.82;8.43;;;20.60;88.40;;;;;;4945689;28;20061;-64
2023/04/23 10:24:44;;;;;;;14.00;8.15;;;20.60;83.00;;;;;;4944430;28;20055;-70
2023/04/23 10:27:15;;;;;;;14.95;9.48;;;20.60;85.10;;;;;;4947245;28;20059;-77
2023/04/23 10:30:04;;;;;;;9.88;8.23;;;20.60;83.30;;;;;;4948290;28;20078;-65
2023/04/23 10:32:37;;;;;;;8.65;7.57;;;20.50;84.70;;;;;;4944551;28;20583;-70
2023/04/23 10:35:06;;;;;;;13.73;8.32;;;20.50;84.40;;;;;;4934879;28;20059;-65
2023/04/23 10:37:34;;;;;;;10.68;7.63;;;20.70;83.40;;;;;;4944071;28;20077;-69
2023/04/23 10:40:12;;;;;;;10.60;8.60;;;20.80;83.00;;;;;;4946283;28;20714;-63
2023/04/23 10:42:41;;;;;;;10.25;8.30;;;20.80;81.80;;;;;;4947734;28;20059;-67
2023/04/23 10:45:12;;;;;;;9.38;6.30;;;20.90;80.10;;;;;;4946295;28;20582;-67
2023/04/23 10:47:54;;;;;;;9.77;6.93;;;21.00;82.50;;;;;;4942989;28;20058;-74
2023/04/23 10:50:24;;;;;;;9.02;6.47;;;20.90;80.50;;;;;;4948528;28;20050;-64
2023/04/23 10:52:55;;;;;;;10.48;7.55;;;21.10;81.00;;;;;;4932028;28;20074;-64
2023/04/23 10:55:25;;;;;;;12.77;7.97;;;21.10;80.60;;;;;;4936180;28;20419;-64
2023/04/23 10:58:04;;;;;;;15.70;8.02;;;21.20;78.80;;;;;;4945068;28;20666;-67
2023/04/23 11:00:40;;;;;;;9.13;7.95;;;21.10;79.10;;;;;;4947942;28;20134;-66
2023/04/23 11:03:40;;;;;;;12.13;7.32;;;21.10;79.80;;;;;;4949337;28;20376;-67
2023/04/23 11:06:18;;;;;;;9.52;7.28;;;21.20;77.80;;;;;;4946472;28;20083;-66
2023/04/23 11:08:52;;;;;;;7.60;6.72;;;21.20;78.10;;;;;;4960849;28;20486;-65
2023/04/23 11:11:38;;;;;;;8.50;7.22;;;21.10;79.00;;;;;;4947261;28;20039;-63
2023/04/23 11:14:14;;;;;;;9.52;7.63;;;21.10;78.20;;;;;;4937109;28;20047;-73
2023/04/23 11:16:41;;;;;;;15.38;6.95;;;21.10;78.80;;;;;;4931566;28;20051;-64
2023/04/23 11:19:11;;;;;;;10.45;8.38;;;21.10;79.70;;;;;;4948239;28;20059;-63
2023/04/23 11:22:11;;;;;;;30.70;9.77;;;21.30;79.60;;;;;;4944270;28;20063;-64
2023/04/23 11:24:41;;;;;;;10.73;8.25;;;21.40;76.80;;;;;;4947082;28;20312;-77
2023/04/23 11:27:09;;;;;;;;;;;21.50;76.60;;;;;;4948260;28;20151;-66
2023/04/23 11:29:39;;;;;;;17.58;7.10;;;21.50;75.80;;;;;;4946023;28;20025;-67
2023/04/23 11:32:11;;;;;;;11.23;7.57;;;21.40;76.20;;;;;;4945668;28;20943;-73
2023/04/23 11:34:43;;;;;;;7.75;6.13;;;21.40;76.50;;;;;;4951357;28;20403;-67
2023/04/23 11:37:11;;;;;;;10.02;8.18;;;21.40;77.70;;;;;;4947151;28;20508;-69
2023/04/23 11:39:39;;;;;;;7.45;6.72;;;21.50;78.60;;;;;;4946777;28;20346;-67
2023/04/23 11:42:11;;;;;;;8.00;7.20;;;21.50;78.50;;;;;;4941705;28;20067;-63
2023/04/23 11:44:40;;;;;;;8.63;6.03;;;21.50;77.10;;;;;;4945711;28;20110;-73
2023/04/23 11:47:09;;;;;;;8.50;6.38;;;21.60;79.20;;;;;;4960532;28;20098;-65
2023/04/23 11:49:38;;;;;;;11.77;6.97;;;21.70;77.30;;;;;;4945284;28;20070;-68
2023/04/23 11:52:06;;;;;;;19.15;8.00;;;21.60;77.60;;;;;;4942595;28;20059;-63
2023/04/23 11:54:33;;;;;;;9.00;6.72;;;21.80;79.10;;;;;;4940958;28;20165;-67
2023/04/23 11:57:01;;;;;;;6.97;6.28;;;21.80;76.80;;;;;;4944276;28;20052;-70
2023/04/23 11:59:29;;;;;;;12.75;6.93;;;21.80;76.70;;;;;;4945144;28;20509;-63
2023/04/23 12:01:57;;;;;;;13.18;7.78;;;21.80;75.00;;;;;;4944537;28;20055;-64
2023/04/23 12:04:26;;;;;;;12.52;6.68;;;21.90;76.00;;;;;;4946045;28;20142;-64
2023/04/23 12:06:54;;;;;;;8.43;6.75;;;21.90;77.60;;;;;;4943541;28;20063;-66
2023/04/23 12:09:27;;;;;;;7.45;6.15;;;21.80;78.00;;;;;;4943399;28;20069;-70
2023/04/23 12:11:57;;;;;;;8.63;7.20;;;22.00;77.70;;;;;;4941058;28;20070;-68
2023/04/23 12:14:29;;;;;;;13.55;7.03;;;22.10;77.60;;;;;;4947037;28;20493;-64
2023/04/23 12:17:07;;;;;;;8.40;7.53;;;22.20;76.30;;;;;;4944713;28;20083;-69
2023/04/23 12:19:34;;;;;;;10.05;6.65;;;22.20;76.00;;;;;;4942482;28;20405;-63
2023/04/23 12:22:02;;;;;;;12.65;7.13;;;22.40;76.30;;;;;;4943045;28;20123;-67
2023/04/23 12:24:45;;;;;;;14.65;8.07;;;22.50;76.70;;;;;;4946176;28;20083;-64
2023/04/23 12:27:14;;;;;;;8.38;6.72;;;22.60;76.30;;;;;;4944909;28;20551;-67
2023/04/23 12:29:41;;;;;;;8.63;6.22;;;22.60;75.80;;;;;;4946192;28;20059;-64
2023/04/23 12:32:13;;;;;;;9.20;7.18;;;22.50;75.40;;;;;;4943655;28;20069;-70
2023/04/23 12:34:56;;;;;;;9.60;6.88;;;22.60;72.20;;;;;;4947293;28;20050;-65
2023/04/23 12:37:28;;;;;;;10.70;6.65;;;22.30;70.70;;;;;;4944801;28;20051;-66
2023/04/23 12:39:58;;;;;;;8.82;5.97;;;22.10;72.60;;;;;;4940981;28;20544;-64
2023/04/23 12:42:25;;;;;;;12.70;6.93;;;22.10;73.60;;;;;;4944767;28;20063;-68
2023/04/23 12:44:54;;;;;;;13.32;7.57;;;22.00;72.50;;;;;;4945009;28;20047;-69
2023/04/23 12:47:21;;;;;;;8.05;6.43;;;22.20;74.10;;;;;;4942341;28;20125;-64
2023/04/23 12:49:51;;;;;;;9.15;5.72;;;22.30;72.20;;;;;;4943402;28;20377;-77
2023/04/23 12:52:19;;;;;;;9.63;6.35;;;22.20;70.30;;;;;;4943837;28;20070;-63
2023/04/23 12:54:50;;;;;;;11.45;7.55;;;22.30;72.40;;;;;;4943384;28;20417;-64
2023/04/23 12:57:21;;;;;;;7.57;6.22;;;22.40;70.70;;;;;;4941933;28;20138;-64
2023/04/23 12:59:49;;;;;;;8.98;6.30;;;22.50;74.20;;;;;;4948047;28;20130;-69
2023/04/23 13:02:16;;;;;;;8.57;5.97;;;22.60;72.80;;;;;;4945426;28;20050;-69
2023/04/23 13:04:43;;;;;;;11.10;6.03;;;22.40;71.60;;;;;;4945302;28;20214;-64
2023/04/23 13:07:09;;;;;;;9.48;5.95;;;22.60;72.70;;;;;;4946154;28;20059;-68
2023/04/23 13:09:36;;;;;;;6.93;5.90;;;22.70;71.20;;;;;;4948651;28;20480;-67